Time;durP1;ratioP1;P1;durP2;ratioP2;P2;SDS_P1;SDS_P2;PMS_P1;PMS_P2;Temp;Humidity;BMP_temperature;BMP_pressure;BME280_temperature;BME280_humidity;BME280_pressure;Samples;Min_cycle;Max_cycle;Signal;HPM_P1;HPM_P2
2022/02/28 00:00:28;;;;;;;13.30;6.35;;;;;;;;;;4883525;29;20400;-73
2022/02/28 00:02:56;;;;;;;12.52;6.40;;;;;;;;;;4899335;29;20048;-73
2022/02/28 00:05:23;;;;;;;14.00;6.68;;;;;;;;;;4899255;29;20055;-73
2022/02/28 00:07:49;;;;;;;12.70;6.25;;;;;;;;;;4899031;29;20052;-75
2022/02/28 00:10:16;;;;;;;10.88;6.43;;;;;;;;;;4883736;29;20377;-73
2022/02/28 00:12:43;;;;;;;12.82;6.78;;;;;;;;;;4899228;29;20067;-74
2022/02/28 00:15:10;;;;;;;11.75;6.35;;;;;;;;;;4899182;29;20052;-73
2022/02/28 00:17:36;;;;;;;11.85;6.47;;;;;;;;;;4898591;29;20048;-73
2022/02/28 00:20:04;;;;;;;12.35;6.65;;;;;;;;;;4898584;29;20409;-74
2022/02/28 00:22:30;;;;;;;10.18;6.22;;;;;;;;;;4898955;29;20059;-75
2022/02/28 00:24:56;;;;;;;15.45;6.53;;;;;;;;;;4898644;29;20142;-77
2022/02/28 00:27:22;;;;;;;17.10;6.90;;;;;;;;;;4898904;29;20059;-74
2022/02/28 00:29:48;;;;;;;14.85;6.57;;;;;;;;;;4898878;29;20048;-74
2022/02/28 00:32:14;;;;;;;15.02;6.80;;;;;;;;;;4899041;29;20131;-74
2022/02/28 00:34:40;;;;;;;12.70;6.70;;;;;;;;;;4899178;29;20070;-74
2022/02/28 00:37:06;;;;;;;13.82;6.68;;;;;;;;;;4898559;29;20048;-74
2022/02/28 00:39:32;;;;;;;14.80;6.60;;;;;;;;;;4883341;29;20044;-80
2022/02/28 00:41:59;;;;;;;11.45;6.85;;;;;;;;;;4898102;29;20075;-73
2022/02/28 00:44:25;;;;;;;15.95;7.03;;;;;;;;;;4899160;29;20044;-72
2022/02/28 00:46:51;;;;;;;13.65;7.05;;;;;;;;;;4898346;29;20065;-72
2022/02/28 00:49:17;;;;;;;14.27;6.30;;;;;;;;;;4883141;29;20168;-72
2022/02/28 00:51:43;;;;;;;12.93;6.80;;;;;;;;;;4898637;29;20166;-74
2022/02/28 00:54:09;;;;;;;13.82;7.05;;;;;;;;;;4898302;29;20048;-72
2022/02/28 00:56:35;;;;;;;16.27;7.63;;;;;;;;;;4898743;29;20456;-73
2022/02/28 00:59:01;;;;;;;14.02;6.88;;;;;;;;;;4882519;29;20047;-73
2022/02/28 01:01:27;;;;;;;11.00;7.20;;;;;;;;;;4883204;29;20087;-72
2022/02/28 01:03:53;;;;;;;19.02;8.25;;;;;;;;;;4897888;29;20054;-73
2022/02/28 01:06:19;;;;;;;15.82;7.32;;;;;;;;;;4898280;29;20445;-72
2022/02/28 01:08:46;;;;;;;16.58;7.50;;;;;;;;;;4898683;29;20044;-72
2022/02/28 01:11:12;;;;;;;12.50;6.95;;;;;;;;;;4897857;29;20056;-73
2022/02/28 01:13:38;;;;;;;12.25;6.93;;;;;;;;;;4898597;29;20052;-72
2022/02/28 01:16:04;;;;;;;12.57;6.93;;;;;;;;;;4898101;29;20079;-74
2022/02/28 01:18:30;;;;;;;14.50;7.13;;;;;;;;;;4898350;29;20048;-74
2022/02/28 01:20:56;;;;;;;14.05;7.07;;;;;;;;;;4882314;29;20139;-75
2022/02/28 01:23:22;;;;;;;13.82;6.70;;;;;;;;;;4897907;29;20083;-73
2022/02/28 01:25:49;;;;;;;16.77;6.95;;;;;;;;;;4898025;29;20040;-75
2022/02/28 01:28:15;;;;;;;12.27;6.75;;;;;;;;;;4882504;29;20056;-73
2022/02/28 01:30:41;;;;;;;12.25;6.72;;;;;;;;;;4898425;29;20044;-72
2022/02/28 01:33:07;;;;;;;13.00;8.02;;;;;;;;;;4897452;29;20194;-73
2022/02/28 01:35:33;;;;;;;15.90;7.65;;;;;;;;;;4897813;29;20044;-73
2022/02/28 01:37:59;;;;;;;13.70;7.00;;;;;;;;;;4897331;29;20102;-73
2022/02/28 01:40:25;;;;;;;15.38;7.30;;;;;;;;;;4897763;29;20044;-73
2022/02/28 01:42:52;;;;;;;14.98;6.63;;;;;;;;;;4897739;29;20555;-73
2022/02/28 01:45:22;;;;;;;16.98;8.05;;;;;;;;;;4882010;29;20052;-74
2022/02/28 01:47:48;;;;;;;13.82;6.82;;;;;;;;;;4897965;29;20048;-73
2022/02/28 01:50:14;;;;;;;16.20;6.80;;;;;;;;;;4896947;29;20066;-76
2022/02/28 01:52:41;;;;;;;16.80;7.18;;;;;;;;;;4897086;29;20063;-75
2022/02/28 01:55:08;;;;;;;15.02;7.15;;;;;;;;;;4897476;29;20107;-75
2022/02/28 01:57:34;;;;;;;12.85;7.53;;;;;;;;;;4882826;29;20060;-76
2022/02/28 02:00:01;;;;;;;13.73;7.40;;;;;;;;;;4897898;29;20044;-76
2022/02/28 02:02:27;;;;;;;13.93;7.38;;;;;;;;;;4882692;29;20056;-76
2022/02/28 02:04:53;;;;;;;15.90;7.50;;;;;;;;;;4897910;29;20460;-76
2022/02/28 02:07:19;;;;;;;16.80;8.27;;;;;;;;;;4898024;29;20249;-76
2022/02/28 02:09:45;;;;;;;13.80;7.75;;;;;;;;;;4898658;29;20056;-76
2022/02/28 02:12:11;;;;;;;15.68;8.15;;;;;;;;;;4882229;29;20048;-76
2022/02/28 02:14:37;;;;;;;14.07;7.78;;;;;;;;;;4882783;29;20052;-76
2022/02/28 02:17:03;;;;;;;14.45;8.10;;;;;;;;;;4897766;29;20440;-76
2022/02/28 02:19:30;;;;;;;14.02;7.72;;;;;;;;;;4882205;29;20111;-76
2022/02/28 02:21:56;;;;;;;13.85;7.65;;;;;;;;;;4882076;29;20067;-76
2022/02/28 02:24:22;;;;;;;15.15;7.60;;;;;;;;;;4898513;29;20519;-76
2022/02/28 02:26:48;;;;;;;11.20;7.15;;;;;;;;;;4882607;29;20052;-76
2022/02/28 02:29:14;;;;;;;11.73;7.30;;;;;;;;;;4881773;29;20254;-77
2022/02/28 02:31:40;;;;;;;19.23;7.80;;;;;;;;;;4898116;29;20044;-76
2022/02/28 02:34:06;;;;;;;12.70;7.60;;;;;;;;;;4897868;29;20467;-76
2022/02/28 02:36:32;;;;;;;13.55;7.43;;;;;;;;;;4898186;29;20143;-76
2022/02/28 02:38:58;;;;;;;14.02;7.22;;;;;;;;;;4880970;29;20047;-78
2022/02/28 02:41:24;;;;;;;16.80;8.63;;;;;;;;;;4899729;29;20404;-76
2022/02/28 02:43:50;;;;;;;12.32;7.53;;;;;;;;;;4901805;29;20056;-76
2022/02/28 02:46:16;;;;;;;13.70;7.63;;;;;;;;;;4901011;29;20244;-77
2022/02/28 02:48:43;;;;;;;15.93;7.35;;;;;;;;;;4901169;29;20511;-77
2022/02/28 02:51:09;;;;;;;16.50;7.78;;;;;;;;;;4901351;29;20084;-76
2022/02/28 02:53:35;;;;;;;13.80;7.28;;;;;;;;;;4901415;29;20063;-77
2022/02/28 02:56:02;;;;;;;14.82;7.28;;;;;;;;;;4885960;29;20104;-77
2022/02/28 02:58:28;;;;;;;15.27;7.40;;;;;;;;;;4901285;29;20476;-77
2022/02/28 03:00:55;;;;;;;14.73;7.75;;;;;;;;;;4885516;29;20483;-77
2022/02/28 03:03:22;;;;;;;12.15;6.95;;;;;;;;;;4901114;29;20072;-77
2022/02/28 03:05:48;;;;;;;17.10;7.78;;;;;;;;;;4885633;29;20052;-76
2022/02/28 03:08:15;;;;;;;14.82;7.78;;;;;;;;;;4885430;29;20138;-76
2022/02/28 03:10:41;;;;;;;14.25;7.60;;;;;;;;;;4885441;29;20468;-76
2022/02/28 03:13:07;;;;;;;12.73;7.32;;;;;;;;;;4900400;29;20545;-76
2022/02/28 03:15:33;;;;;;;13.00;8.88;;;;;;;;;;4901226;29;20059;-77
2022/02/28 03:17:59;;;;;;;15.30;8.70;;;;;;;;;;4901228;29;20095;-76
2022/02/28 03:20:25;;;;;;;18.63;8.32;;;;;;;;;;4900685;29;20051;-77
2022/02/28 03:22:52;;;;;;;13.57;7.60;;;;;;;;;;4901385;29;20047;-76
2022/02/28 03:25:18;;;;;;;12.93;7.18;;;;;;;;;;4900315;29;20111;-76
2022/02/28 03:27:45;;;;;;;13.52;7.10;;;;;;;;;;4900891;29;20127;-76
2022/02/28 03:30:11;;;;;;;12.60;7.70;;;;;;;;;;4884953;29;20111;-76
2022/02/28 03:32:37;;;;;;;17.48;8.23;;;;;;;;;;4900953;29;20052;-77
2022/02/28 03:35:04;;;;;;;14.80;7.20;;;;;;;;;;4885254;29;20052;-76
2022/02/28 03:37:30;;;;;;;10.80;7.03;;;;;;;;;;4916641;29;20381;-76
2022/02/28 03:39:56;;;;;;;17.25;7.65;;;;;;;;;;4900587;29;20103;-76
2022/02/28 03:42:23;;;;;;;14.48;7.65;;;;;;;;;;4900464;29;20076;-77
2022/02/28 03:44:49;;;;;;;15.32;7.57;;;;;;;;;;4900624;29;20051;-76
2022/02/28 03:47:15;;;;;;;13.82;7.13;;;;;;;;;;4900261;29;20059;-77
2022/02/28 03:49:41;;;;;;;11.20;7.47;;;;;;;;;;4885166;29;20044;-76
2022/02/28 03:52:08;;;;;;;16.40;7.82;;;;;;;;;;4900301;29;20151;-76
2022/02/28 03:54:34;;;;;;;14.32;7.10;;;;;;;;;;4900192;29;20056;-77
2022/02/28 03:57:00;;;;;;;11.60;7.20;;;;;;;;;;4899782;29;20059;-77
2022/02/28 03:59:26;;;;;;;12.68;7.53;;;;;;;;;;4899595;29;20096;-76
2022/02/28 04:01:52;;;;;;;15.38;7.18;;;;;;;;;;4899910;29;20480;-77
2022/02/28 04:04:19;;;;;;;13.48;8.35;;;;;;;;;;4900149;29;20052;-77
2022/02/28 04:06:48;;;;;;;14.60;7.82;;;;;;;;;;4900364;29;20044;-75
2022/02/28 04:09:14;;;;;;;16.02;8.45;;;;;;;;;;4899709;29;20460;-76
2022/02/28 04:11:41;;;;;;;13.90;8.07;;;;;;;;;;4884837;29;20052;-76
2022/02/28 04:14:07;;;;;;;12.88;7.45;;;;;;;;;;4899776;29;20091;-77
2022/02/28 04:16:34;;;;;;;14.82;7.45;;;;;;;;;;4884196;29;20476;-76
2022/02/28 04:19:00;;;;;;;13.10;7.25;;;;;;;;;;4900109;29;20040;-77
2022/02/28 04:21:26;;;;;;;14.88;7.30;;;;;;;;;;4884135;29;20052;-76
2022/02/28 04:23:52;;;;;;;14.30;7.88;;;;;;;;;;4884263;29;20060;-76
2022/02/28 04:26:19;;;;;;;14.50;8.02;;;;;;;;;;4899737;29;20048;-77
2022/02/28 04:28:45;;;;;;;15.60;7.88;;;;;;;;;;4899456;29;20048;-76
2022/02/28 04:31:12;;;;;;;15.30;8.32;;;;;;;;;;4883921;29;20134;-77
2022/02/28 04:33:39;;;;;;;15.65;8.75;;;;;;;;;;4884204;29;20159;-76
2022/02/28 04:36:05;;;;;;;15.20;7.30;;;;;;;;;;4899494;29;20056;-76
2022/02/28 04:38:31;;;;;;;13.43;8.15;;;;;;;;;;4899489;29;20429;-77
2022/02/28 04:40:57;;;;;;;14.55;8.43;;;;;;;;;;4899317;29;20056;-77
2022/02/28 04:43:23;;;;;;;15.25;8.02;;;;;;;;;;4899407;29;20051;-77
2022/02/28 04:45:50;;;;;;;14.65;7.70;;;;;;;;;;4884055;29;20138;-77
2022/02/28 04:48:16;;;;;;;14.43;8.32;;;;;;;;;;4899172;29;20078;-76
2022/02/28 04:50:42;;;;;;;16.58;7.60;;;;;;;;;;4883743;29;20465;-76
2022/02/28 04:53:08;;;;;;;13.13;8.10;;;;;;;;;;4883596;29;20087;-78
2022/02/28 04:55:35;;;;;;;15.02;7.78;;;;;;;;;;4915121;29;20139;-77
2022/02/28 04:58:01;;;;;;;13.80;7.53;;;;;;;;;;4899374;29;20086;-77
2022/02/28 05:00:27;;;;;;;12.95;7.40;;;;;;;;;;4898691;29;20131;-77
2022/02/28 05:02:53;;;;;;;14.77;8.05;;;;;;;;;;4899369;29;20094;-76
2022/02/28 05:05:21;;;;;;;13.25;8.00;;;;;;;;;;4883122;29;20051;-77
2022/02/28 05:07:47;;;;;;;15.38;8.35;;;;;;;;;;4883863;29;20059;-76
2022/02/28 05:10:13;;;;;;;17.38;8.25;;;;;;;;;;4882817;29;20052;-77
2022/02/28 05:12:39;;;;;;;13.38;8.38;;;;;;;;;;4899209;29;20052;-76
2022/02/28 05:15:06;;;;;;;16.13;8.48;;;;;;;;;;4898814;29;20056;-76
2022/02/28 05:17:32;;;;;;;17.30;8.90;;;;;;;;;;4898869;29;20131;-76
2022/02/28 05:19:58;;;;;;;20.17;8.27;;;;;;;;;;4883173;29;20122;-77
2022/02/28 05:22:24;;;;;;;14.45;8.82;;;;;;;;;;4883390;29;20395;-77
2022/02/28 05:24:50;;;;;;;14.43;8.32;;;;;;;;;;4898679;29;20056;-77
2022/02/28 05:27:16;;;;;;;15.30;8.98;;;;;;;;;;4898627;29;20055;-77
2022/02/28 05:29:42;;;;;;;17.60;8.32;;;;;;;;;;4898607;29;20056;-77
2022/02/28 05:32:08;;;;;;;15.57;8.50;;;;;;;;;;4898788;29;20047;-75
2022/02/28 05:34:34;;;;;;;13.80;8.57;;;;;;;;;;4898424;29;20087;-76
2022/02/28 05:37:00;;;;;;;16.30;8.23;;;;;;;;;;4898536;29;20056;-77
2022/02/28 05:39:27;;;;;;;15.25;9.10;;;;;;;;;;4882705;29;20131;-77
2022/02/28 05:41:53;;;;;;;15.25;8.63;;;;;;;;;;4898475;29;20353;-77
2022/02/28 05:44:19;;;;;;;12.98;8.70;;;;;;;;;;4898468;29;20048;-77
2022/02/28 05:46:45;;;;;;;14.02;8.80;;;;;;;;;;4898397;29;20051;-77
2022/02/28 05:49:12;;;;;;;15.18;8.98;;;;;;;;;;4898780;29;20051;-77
2022/02/28 05:51:38;;;;;;;16.63;8.75;;;;;;;;;;4883235;29;20056;-77
2022/02/28 05:54:04;;;;;;;16.52;9.05;;;;;;;;;;4879627;29;20060;-77
2022/02/28 05:56:30;;;;;;;17.25;9.18;;;;;;;;;;4863881;29;20092;-77
2022/02/28 05:58:56;;;;;;;14.00;8.55;;;;;;;;;;4864222;29;20064;-77
2022/02/28 06:01:22;;;;;;;12.52;8.60;;;;;;;;;;4894830;29;20515;-77
2022/02/28 06:03:49;;;;;;;18.00;8.45;;;;;;;;;;4880261;29;20059;-77
2022/02/28 06:06:15;;;;;;;15.75;8.27;;;;;;;;;;4863756;29;20048;-78
2022/02/28 06:08:41;;;;;;;19.30;10.27;;;;;;;;;;4879547;29;20060;-77
2022/02/28 06:11:07;;;;;;;14.43;8.38;;;;;;;;;;4879656;29;20048;-77
2022/02/28 06:13:33;;;;;;;14.30;8.30;;;;;;;;;;4878981;29;20056;-77
2022/02/28 06:15:59;;;;;;;14.43;8.60;;;;;;;;;;4865611;29;20060;-76
2022/02/28 06:18:25;;;;;;;15.65;9.23;;;;;;;;;;4882753;29;20056;-76
2022/02/28 06:20:51;;;;;;;16.98;8.75;;;;;;;;;;4882924;29;20045;-76
2022/02/28 06:23:17;;;;;;;16.98;8.57;;;;;;;;;;4867618;29;20053;-78
2022/02/28 06:25:44;;;;;;;15.60;9.23;;;;;;;;;;4883147;29;20556;-77
2022/02/28 06:28:10;;;;;;;16.10;9.57;;;;;;;;;;4883158;29;20087;-78
2022/02/28 06:30:36;;;;;;;17.92;9.40;;;;;;;;;;4882552;29;20195;-77
2022/02/28 06:33:02;;;;;;;15.50;9.05;;;;;;;;;;4883015;29;20048;-77
2022/02/28 06:35:28;;;;;;;17.48;9.27;;;;;;;;;;4882387;29;20127;-78
2022/02/28 06:37:54;;;;;;;13.35;8.85;;;;;;;;;;4883181;29;20350;-77
2022/02/28 06:40:20;;;;;;;17.00;8.82;;;;;;;;;;4867136;29;20543;-77
2022/02/28 06:42:46;;;;;;;17.92;9.55;;;;;;;;;;4882884;29;20518;-77
2022/02/28 06:45:13;;;;;;;13.77;8.30;;;;;;;;;;4882739;29;20512;-78
2022/02/28 06:47:39;;;;;;;17.13;9.52;;;;;;;;;;4882384;29;20044;-78
2022/02/28 06:50:06;;;;;;;18.52;9.48;;;;;;;;;;4882603;29;20045;-78
2022/02/28 06:52:32;;;;;;;15.40;8.60;;;;;;;;;;4867243;29;20056;-78
2022/02/28 06:54:58;;;;;;;14.43;8.88;;;;;;;;;;4896220;29;20063;-77
2022/02/28 06:57:24;;;;;;;15.70;9.80;;;;;;;;;;4900779;29;20151;-77
2022/02/28 06:59:51;;;;;;;16.77;9.57;;;;;;;;;;4901161;29;20051;-77
2022/02/28 07:02:18;;;;;;;17.40;8.98;;;;;;;;;;4885420;29;20044;-78
2022/02/28 07:04:44;;;;;;;14.65;8.55;;;;;;;;;;4901913;29;20397;-77
2022/02/28 07:07:11;;;;;;;14.07;8.05;;;;;;;;;;4885811;29;20066;-77
2022/02/28 07:09:37;;;;;;;16.50;9.02;;;;;;;;;;4900836;29;20412;-77
2022/02/28 07:12:04;;;;;;;14.18;9.13;;;;;;;;;;4901642;29;20075;-77
2022/02/28 07:14:30;;;;;;;13.23;8.45;;;;;;;;;;4901396;29;20055;-77
2022/02/28 07:16:56;;;;;;;13.68;8.50;;;;;;;;;;4901562;29;20140;-77
2022/02/28 07:19:22;;;;;;;13.75;8.55;;;;;;;;;;4900550;29;20041;-79
2022/02/28 07:21:49;;;;;;;16.63;8.20;;;;;;;;;;4901480;29;20051;-77
2022/02/28 07:24:15;;;;;;;12.70;8.38;;;;;;;;;;4885788;29;20143;-77
2022/02/28 07:26:41;;;;;;;12.70;8.05;;;;;;;;;;4900551;29;20548;-75
2022/02/28 07:29:07;;;;;;;14.77;8.70;;;;;;;;;;4901231;29;20170;-77
2022/02/28 07:31:33;;;;;;;12.75;8.27;;;;;;;;;;4884860;29;20095;-77
2022/02/28 07:33:59;;;;;;;14.60;8.20;;;;;;;;;;4885300;29;20048;-76
2022/02/28 07:36:26;;;;;;;12.45;8.13;;;;;;;;;;4901072;29;20095;-77
2022/02/28 07:38:52;;;;;;;11.90;7.78;;;;;;;;;;4899054;29;20071;-76
2022/02/28 07:41:18;;;;;;;17.30;8.55;;;;;;;;;;4900400;29;20492;-77
2022/02/28 07:43:44;;;;;;;14.80;8.13;;;;;;;;;;4900593;29;20100;-77
2022/02/28 07:46:11;;;;;;;12.48;7.90;;;;;;;;;;4885256;29;20056;-76
2022/02/28 07:48:37;;;;;;;11.55;7.78;;;;;;;;;;4900458;29;20048;-76
2022/02/28 07:51:03;;;;;;;10.95;7.65;;;;;;;;;;4900703;29;20409;-77
2022/02/28 07:53:29;;;;;;;12.57;8.25;;;;;;;;;;4884935;29;20055;-77
2022/02/28 07:55:55;;;;;;;15.25;8.00;;;;;;;;;;4885221;29;20055;-77
2022/02/28 07:58:21;;;;;;;11.23;8.13;;;;;;;;;;4900395;29;20510;-77
2022/02/28 08:00:47;;;;;;;13.93;8.10;;;;;;;;;;4900178;29;20515;-76
2022/02/28 08:03:13;;;;;;;14.55;7.97;;;;;;;;;;4900824;29;20477;-77
2022/02/28 08:05:39;;;;;;;12.20;7.57;;;;;;;;;;4900469;29;20051;-77
2022/02/28 08:08:05;;;;;;;12.88;8.75;;;;;;;;;;4900232;29;20134;-77
2022/02/28 08:10:31;;;;;;;12.35;8.25;;;;;;;;;;4899817;29;20094;-77
2022/02/28 08:12:57;;;;;;;11.73;7.22;;;;;;;;;;4900139;29;20056;-76
2022/02/28 08:15:23;;;;;;;;;;;;;;;;;;4900998;29;20087;-77
2022/02/28 08:17:49;;;;;;;;;;;;;;;;;;4900656;29;19966;-76
2022/02/28 08:20:15;;;;;;;10.75;7.88;;;;;;;;;;4884426;29;19923;-78
2022/02/28 08:22:41;;;;;;;;;;;;;;;;;;4900526;29;20429;-77
2022/02/28 08:25:07;;;;;;;11.30;7.38;;;;;;;;;;4900051;29;19930;-77
2022/02/28 08:27:34;;;;;;;11.35;8.05;;;;;;;;;;4900085;29;20051;-77
2022/02/28 08:30:00;;;;;;;9.52;7.22;;;;;;;;;;4900255;29;20067;-77
2022/02/28 08:32:26;;;;;;;11.45;7.25;;;;;;;;;;4899938;29;20060;-80
2022/02/28 08:34:52;;;;;;;12.25;7.85;;;;;;;;;;4900121;29;20111;-77
2022/02/28 08:37:18;;;;;;;12.82;7.15;;;;;;;;;;4900147;29;20059;-79
2022/02/28 08:39:44;;;;;;;11.75;8.20;;;;;;;;;;4897131;29;20432;-76
2022/02/28 08:42:11;;;;;;;10.47;8.07;;;;;;;;;;4899026;29;20421;-77
2022/02/28 08:44:37;;;;;;;10.68;7.68;;;;;;;;;;4899650;29;20425;-77
2022/02/28 08:47:04;;;;;;;9.33;7.57;;;;;;;;;;4883057;29;20505;-77
2022/02/28 08:49:30;;;;;;;10.32;7.57;;;;;;;;;;4883016;29;20425;-78
2022/02/28 08:51:56;;;;;;;9.65;7.85;;;;;;;;;;4898628;29;20423;-76
2022/02/28 08:54:23;;;;;;;9.90;7.95;;;;;;;;;;4898362;29;20472;-80
2022/02/28 08:56:49;;;;;;;10.80;8.03;;;;;;;;;;4898194;29;20508;-78
2022/02/28 08:59:15;;;;;;;;;;;;;;;;;;4899873;29;20054;-79
2022/02/28 09:01:41;;;;;;;;;;;;;;;;;;4899962;29;20359;-79
2022/02/28 09:04:07;;;;;;;;;;;;;;;;;;4900050;29;19988;-77
2022/02/28 09:06:33;;;;;;;;;;;;;;;;;;4899956;29;20410;-75
2022/02/28 09:08:59;;;;;;;;;;;;;;;;;;4899485;29;19961;-74
2022/02/28 09:11:25;;;;;;;;;;;;;;;;;;4900130;29;19930;-74
2022/02/28 09:13:51;;;;;;;;;;;;;;;;;;4899320;29;20007;-74
2022/02/28 09:16:17;;;;;;;;;;;;;;;;;;4899696;29;20029;-75
2022/02/28 09:18:43;;;;;;;;;;;;;;;;;;4883868;29;19949;-74
2022/02/28 09:21:09;;;;;;;;;;;;;;;;;;4899175;29;20367;-76
2022/02/28 09:23:35;;;;;;;10.15;7.20;;;;;;;;;;4882977;29;20291;-77
2022/02/28 09:26:01;;;;;;;10.15;8.38;;;;;;;;;;4898025;29;20754;-77
2022/02/28 09:28:27;;;;;;;12.38;7.57;;;;;;;;;;4899443;29;20400;-76
2022/02/28 09:30:54;;;;;;;12.15;8.55;;;;;;;;;;4897318;29;20437;-76
2022/02/28 09:33:20;;;;;;;11.90;8.25;;;;;;;;;;4899171;29;20052;-76
2022/02/28 09:35:47;;;;;;;11.05;7.80;;;;;;;;;;4898913;29;20044;-76
2022/02/28 09:38:14;;;;;;;9.63;7.18;;;;;;;;;;4883570;29;20083;-76
2022/02/28 09:40:42;;;;;;;10.13;7.30;;;;;;;;;;4898494;29;20488;-76
2022/02/28 09:43:08;;;;;;;10.48;7.85;;;;;;;;;;4899010;29;20055;-77
2022/02/28 09:45:34;;;;;;;10.15;7.65;;;;;;;;;;4898589;29;20059;-76
2022/02/28 09:48:00;;;;;;;11.32;7.57;;;;;;;;;;4883595;29;20092;-76
2022/02/28 09:50:27;;;;;;;11.65;7.38;;;;;;;;;;4883180;29;20475;-76
2022/02/28 09:52:53;;;;;;;10.60;7.65;;;;;;;;;;4898527;29;20540;-73
2022/02/28 09:55:19;;;;;;;11.82;7.57;;;;;;;;;;4898695;29;20060;-71
2022/02/28 09:57:50;;;;;;;11.32;7.45;;;;;;;;;;4915559;29;20131;-71
2022/02/28 10:00:20;;;;;;;11.75;7.75;;;;;;;;;;4898416;29;20563;-71
2022/02/28 10:02:47;;;;;;;10.55;7.22;;;;;;;;;;4898604;29;20373;-71
2022/02/28 10:05:13;;;;;;;11.07;7.43;;;;;;;;;;4898978;29;20059;-71
2022/02/28 10:07:50;;;;;;;10.18;7.50;;;;;;;;;;4898101;29;20044;-71
2022/02/28 10:10:16;;;;;;;12.50;7.50;;;;;;;;;;4898995;29;20155;-73
2022/02/28 10:12:43;;;;;;;10.23;8.05;;;;;;;;;;4898073;29;20052;-73
2022/02/28 10:15:13;;;;;;;9.75;6.72;;;;;;;;;;4897971;29;20433;-73
2022/02/28 10:17:46;;;;;;;12.20;7.68;;;;;;;;;;4898078;29;20166;-73
2022/02/28 10:20:19;;;;;;;11.90;7.93;;;;;;;;;;4898611;29;20157;-73
2022/02/28 10:22:45;;;;;;;11.75;6.93;;;;;;;;;;4898450;29;20530;-73
2022/02/28 10:25:25;;;;;;;11.35;7.60;;;;;;;;;;4883389;29;20359;-73
2022/02/28 10:28:06;;;;;;;16.52;8.45;;;;;;;;;;4882955;29;20108;-73
2022/02/28 10:30:33;;;;;;;10.73;7.03;;;;;;;;;;4898931;29;20054;-72
2022/02/28 10:33:06;;;;;;;10.77;7.78;;;;;;;;;;4898262;29;20048;-73
2022/02/28 10:38:22;;;;;;;12.10;7.78;;;;;;;;;;4898743;29;20531;-72
2022/02/28 10:40:48;;;;;;;12.65;7.28;;;;;;;;;;4898002;29;20056;-73
2022/02/28 10:43:34;;;;;;;10.18;6.80;;;;;;;;;;4898772;29;20048;-73
2022/02/28 10:46:12;;;;;;;9.88;6.82;;;;;;;;;;4882410;29;20460;-73
2022/02/28 10:48:39;;;;;;;9.73;7.10;;;;;;;;;;4898468;29;20079;-74
2022/02/28 10:51:14;;;;;;;9.90;7.22;;;;;;;;;;4915237;29;20052;-73
2022/02/28 10:53:40;;;;;;;11.80;7.35;;;;;;;;;;4898090;29;20052;-73
2022/02/28 10:56:06;;;;;;;13.80;7.57;;;;;;;;;;4882869;29;20070;-72
2022/02/28 10:58:34;;;;;;;11.23;7.05;;;;;;;;;;4898528;29;20052;-73
2022/02/28 11:01:05;;;;;;;10.07;6.93;;;;;;;;;;4881725;29;20103;-73
2022/02/28 11:03:44;;;;;;;11.20;6.80;;;;;;;;;;4901791;29;20100;-73
2022/02/28 11:06:10;;;;;;;10.65;7.18;;;;;;;;;;4886020;29;20127;-73
2022/02/28 11:08:42;;;;;;;10.57;7.38;;;;;;;;;;4886284;29;20052;-73
2022/02/28 11:11:09;;;;;;;9.13;7.15;;;;;;;;;;4886096;29;20063;-72
2022/02/28 11:13:35;;;;;;;9.98;7.40;;;;;;;;;;4901774;29;20377;-72
2022/02/28 11:16:02;;;;;;;10.35;7.22;;;;;;;;;;4901412;29;20400;-72
2022/02/28 11:18:28;;;;;;;10.07;6.88;;;;;;;;;;4901806;29;20139;-72
2022/02/28 11:20:55;;;;;;;10.55;7.38;;;;;;;;;;4916699;29;20131;-73
2022/02/28 11:23:22;;;;;;;11.50;7.13;;;;;;;;;;4901513;29;20055;-73
2022/02/28 11:25:48;;;;;;;10.55;7.38;;;;;;;;;;4901128;29;20052;-72
2022/02/28 11:28:14;;;;;;;10.68;7.30;;;;;;;;;;4901577;29;20166;-73
2022/02/28 11:30:41;;;;;;;9.65;6.82;;;;;;;;;;4901447;29;20083;-72
2022/02/28 11:33:10;;;;;;;11.65;6.88;;;;;;;;;;4901239;29;20476;-73
2022/02/28 11:35:50;;;;;;;9.70;5.95;;;;;;;;;;4901259;29;20056;-72
2022/02/28 11:38:16;;;;;;;9.90;6.88;;;;;;;;;;4901308;29;20044;-73
2022/02/28 11:40:46;;;;;;;9.48;6.13;;;;;;;;;;4900497;29;20177;-77
2022/02/28 11:43:12;;;;;;;10.32;6.57;;;;;;;;;;4901142;29;20048;-73
2022/02/28 11:45:49;;;;;;;10.15;6.72;;;;;;;;;;4900934;29;20048;-73
2022/02/28 11:48:18;;;;;;;12.27;6.95;;;;;;;;;;4901253;29;20044;-73
2022/02/28 11:50:53;;;;;;;9.35;6.28;;;;;;;;;;4900709;29;20063;-73
2022/02/28 11:53:38;;;;;;;13.70;7.38;;;;;;;;;;4900919;29;20056;-73
2022/02/28 11:56:16;;;;;;;10.35;7.47;;;;;;;;;;4900738;29;20052;-73
2022/02/28 11:58:49;;;;;;;10.20;6.75;;;;;;;;;;4900760;29;20059;-77
2022/02/28 12:01:16;;;;;;;10.63;7.13;;;;;;;;;;4900446;29;20044;-72
2022/02/28 12:04:10;;;;;;;9.68;6.30;;;;;;;;;;4900896;29;20242;-73
2022/02/28 12:06:53;;;;;;;8.98;6.32;;;;;;;;;;4900424;29;20060;-73
2022/02/28 12:09:37;;;;;;;11.82;6.30;;;;;;;;;;4885365;29;20056;-73
2022/02/28 12:12:03;;;;;;;;;;;;;;;;;;4885178;29;20283;-72
2022/02/28 12:14:29;;;;;;;10.75;6.65;;;;;;;;;;4899803;29;19930;-72
2022/02/28 12:19:40;;;;;;;12.02;6.97;;;;;;;;;;4900423;29;20052;-73
2022/02/28 12:22:06;;;;;;;10.07;6.32;;;;;;;;;;4884712;29;20115;-72
2022/02/28 12:24:51;;;;;;;12.23;6.28;;;;;;;;;;4900452;29;20139;-73
2022/02/28 12:27:17;;;;;;;10.80;6.90;;;;;;;;;;4900391;29;20106;-74
2022/02/28 12:29:44;;;;;;;11.63;7.13;;;;;;;;;;4900331;29;20408;-72
2022/02/28 12:32:10;;;;;;;7.93;6.47;;;;;;;;;;4899734;29;20044;-74
2022/02/28 12:34:36;;;;;;;11.45;7.35;;;;;;;;;;4884735;29;20051;-73
2022/02/28 12:37:03;;;;;;;10.13;6.72;;;;;;;;;;4899777;29;20055;-73
2022/02/28 12:39:29;;;;;;;9.63;7.05;;;;;;;;;;4884150;29;20500;-73
2022/02/28 12:41:56;;;;;;;11.30;7.82;;;;;;;;;;4899860;29;20055;-73
2022/02/28 12:44:22;;;;;;;11.30;7.13;;;;;;;;;;4884502;29;20052;-73
2022/02/28 12:46:53;;;;;;;11.55;7.57;;;;;;;;;;4899523;29;20463;-73
2022/02/28 12:49:21;;;;;;;8.73;6.57;;;;;;;;;;4900068;29;20102;-73
2022/02/28 12:51:52;;;;;;;9.68;6.93;;;;;;;;;;4899625;29;20048;-77
2022/02/28 12:54:24;;;;;;;10.38;7.00;;;;;;;;;;4899329;29;20079;-73
2022/02/28 12:56:58;;;;;;;11.73;6.63;;;;;;;;;;4883913;29;20052;-73
2022/02/28 12:59:32;;;;;;;11.38;6.88;;;;;;;;;;4899841;29;20044;-73
2022/02/28 13:01:58;;;;;;;;;;;;;;;;;;4899669;29;20471;-73
2022/02/28 13:04:24;;;;;;;8.50;6.53;;;;;;;;;;4899551;29;19930;-73
2022/02/28 13:06:50;;;;;;;11.07;7.68;;;;;;;;;;4883916;29;20083;-74
2022/02/28 13:09:17;;;;;;;12.65;8.38;;;;;;;;;;4899650;29;20060;-73
2022/02/28 13:11:47;;;;;;;10.98;7.13;;;;;;;;;;4899380;29;20092;-73
2022/02/28 13:14:18;;;;;;;9.13;6.78;;;;;;;;;;4899265;29;20058;-73
2022/02/28 13:16:45;;;;;;;17.70;8.00;;;;;;;;;;4899201;29;20044;-73
2022/02/28 13:19:16;;;;;;;14.80;7.43;;;;;;;;;;4899110;29;20551;-73
2022/02/28 13:21:43;;;;;;;10.10;7.03;;;;;;;;;;4899425;29;20362;-73
2022/02/28 13:24:10;;;;;;;9.60;6.95;;;;;;;;;;4898571;29;20519;-73
2022/02/28 13:26:37;;;;;;;12.27;7.38;;;;;;;;;;4899309;29;20083;-73
2022/02/28 13:29:04;;;;;;;9.55;6.32;;;;;;;;;;4898742;29;20476;-73
2022/02/28 13:31:33;;;;;;;9.07;6.90;;;;;;;;;;4883741;29;20048;-73
2022/02/28 13:34:00;;;;;;;13.63;7.40;;;;;;;;;;4898658;29;20099;-73
2022/02/28 13:36:37;;;;;;;9.95;7.00;;;;;;;;;;4899186;29;20380;-73
2022/02/28 13:39:05;;;;;;;10.40;6.70;;;;;;;;;;4898691;29;20454;-72
2022/02/28 13:41:31;;;;;;;10.90;7.10;;;;;;;;;;4899226;29;20044;-73
2022/02/28 13:44:00;;;;;;;10.00;7.35;;;;;;;;;;4898770;29;20131;-73
2022/02/28 13:46:27;;;;;;;10.15;7.32;;;;;;;;;;4898697;29;20083;-73
2022/02/28 13:48:57;;;;;;;13.65;7.00;;;;;;;;;;4898661;29;20139;-74
2022/02/28 13:51:23;;;;;;;8.90;7.10;;;;;;;;;;4899007;29;20056;-73
2022/02/28 13:53:49;;;;;;;10.13;7.00;;;;;;;;;;4898805;29;20152;-73
2022/02/28 13:56:25;;;;;;;14.77;7.95;;;;;;;;;;4898761;29;20111;-73
2022/02/28 13:58:51;;;;;;;11.10;7.07;;;;;;;;;;4883428;29;20441;-73
2022/02/28 14:01:17;;;;;;;9.50;6.75;;;;;;;;;;4898374;29;20151;-73
2022/02/28 14:03:58;;;;;;;11.27;6.97;;;;;;;;;;4898937;29;20052;-72
2022/02/28 14:06:24;;;;;;;9.07;6.40;;;;;;;;;;4898448;29;20041;-73
2022/02/28 14:08:51;;;;;;;10.68;7.10;;;;;;;;;;4915509;29;20091;-74
2022/02/28 14:11:26;;;;;;;10.90;7.20;;;;;;;;;;4898206;29;20048;-74
2022/02/28 14:13:53;;;;;;;10.07;7.30;;;;;;;;;;4898455;29;20156;-72
2022/02/28 14:16:21;;;;;;;9.45;6.63;;;;;;;;;;4915521;29;20052;-71
2022/02/28 14:19:08;;;;;;;10.13;6.72;;;;;;;;;;4883266;29;20056;-72
2022/02/28 14:21:39;;;;;;;10.30;6.60;;;;;;;;;;4883152;29;20519;-73
2022/02/28 14:24:06;;;;;;;9.63;7.05;;;;;;;;;;4898689;29;20198;-73
2022/02/28 14:26:33;;;;;;;9.27;6.68;;;;;;;;;;4898647;29;20060;-73
2022/02/28 14:29:00;;;;;;;10.65;6.75;;;;;;;;;;4898462;29;20348;-73
2022/02/28 14:31:26;;;;;;;13.30;7.38;;;;;;;;;;4898640;29;20059;-73
2022/02/28 14:33:53;;;;;;;9.13;6.72;;;;;;;;;;4898743;29;20103;-72
2022/02/28 14:36:20;;;;;;;11.68;6.95;;;;;;;;;;4898485;29;20131;-73
2022/02/28 14:38:46;;;;;;;10.60;6.72;;;;;;;;;;4902319;29;20402;-73
2022/02/28 14:41:13;;;;;;;8.50;6.40;;;;;;;;;;4886045;29;20499;-73